createdAt,value
2018-08-14T00:01:17.644Z,2.40
2018-08-14T00:03:51.516Z,2.42
2018-08-14T00:06:25.369Z,2.83
2018-08-14T00:08:59.262Z,2.00
2018-08-14T00:11:33.785Z,1.98
2018-08-14T00:14:08.568Z,2.08
2018-08-14T00:16:42.467Z,2.40
2018-08-14T00:19:17.045Z,2.15
2018-08-14T00:21:50.912Z,2.35
2018-08-14T00:24:24.832Z,2.53
2018-08-14T00:26:59.272Z,1.92
2018-08-14T00:29:33.059Z,2.30
2018-08-14T00:32:07.705Z,2.45
2018-08-14T00:34:41.462Z,2.05
2018-08-14T00:37:15.270Z,2.20
2018-08-14T00:39:48.976Z,2.65
2018-08-14T00:42:23.489Z,2.53
2018-08-14T00:44:57.227Z,2.35
2018-08-14T00:47:30.992Z,2.72
2018-08-14T00:50:05.929Z,2.60
2018-08-14T00:52:39.772Z,3.00
2018-08-14T00:55:13.490Z,2.65
2018-08-14T00:57:47.309Z,2.15
2018-08-14T01:00:21.768Z,2.40
2018-08-14T01:02:56.405Z,2.30
2018-08-14T01:05:30.893Z,2.50
2018-08-14T01:08:04.662Z,2.75
2018-08-14T01:10:39.209Z,2.50
2018-08-14T01:13:13.749Z,2.80
2018-08-14T01:15:47.377Z,2.80
2018-08-14T01:18:21.968Z,2.50
2018-08-14T01:20:55.807Z,2.50
2018-08-14T01:23:29.639Z,2.40
2018-08-14T01:26:03.523Z,3.03
2018-08-14T01:28:38.170Z,2.78
2018-08-14T01:31:12.725Z,2.42
2018-08-14T01:33:46.500Z,2.40
2018-08-14T01:36:20.351Z,2.70
2018-08-14T01:38:55.755Z,2.25
2018-08-14T01:41:29.536Z,2.20
2018-08-14T01:44:03.439Z,2.20
2018-08-14T01:46:37.244Z,2.10
2018-08-14T01:49:11.842Z,2.20
2018-08-14T01:51:45.624Z,2.50
2018-08-14T01:54:20.291Z,2.10
2018-08-14T01:56:54.081Z,2.15
2018-08-14T01:59:27.933Z,2.00
2018-08-14T02:02:01.887Z,1.73
2018-08-14T02:04:35.812Z,1.92
2018-08-14T02:07:10.459Z,2.03
2018-08-14T02:09:44.128Z,2.12
2018-08-14T02:12:18.812Z,1.80
2018-08-14T02:14:52.582Z,2.17
2018-08-14T02:17:26.281Z,1.75
2018-08-14T02:20:00.904Z,1.75
2018-08-14T02:22:35.493Z,2.08
2018-08-14T02:25:09.388Z,1.60
2018-08-14T02:27:43.263Z,1.98
2018-08-14T02:30:17.115Z,1.75
2018-08-14T02:32:50.952Z,1.60
2018-08-14T02:35:24.816Z,1.80
2018-08-14T02:37:58.517Z,1.75
2018-08-14T02:40:33.056Z,1.85
2018-08-14T02:43:06.960Z,1.90
2018-08-14T02:45:40.815Z,1.85
2018-08-14T02:48:14.584Z,1.50
2018-08-14T02:50:48.470Z,1.95
2018-08-14T02:53:23.160Z,1.50
2018-08-14T02:55:57.807Z,1.50
2018-08-14T02:58:31.735Z,1.60
2018-08-14T03:01:05.527Z,1.70
2018-08-14T03:03:40.126Z,1.55
2018-08-14T03:06:13.916Z,1.67
2018-08-14T03:08:48.553Z,1.80
2018-08-14T03:11:22.341Z,1.98
2018-08-14T03:13:57.666Z,1.60
2018-08-14T03:16:31.398Z,1.40
2018-08-14T03:19:05.108Z,1.67
2018-08-14T03:21:38.949Z,1.60
2018-08-14T03:24:13.517Z,2.53
2018-08-14T03:26:48.111Z,1.62
2018-08-14T03:29:21.821Z,1.75
2018-08-14T03:31:55.627Z,1.70
2018-08-14T03:34:30.188Z,1.52
2018-08-14T03:37:04.814Z,1.70
2018-08-14T03:39:39.377Z,2.12
2018-08-14T03:42:13.855Z,1.40
2018-08-14T03:44:47.618Z,1.37
2018-08-14T03:47:21.379Z,1.50
2018-08-14T03:49:55.277Z,1.80
2018-08-14T03:52:29.035Z,1.70
2018-08-14T03:55:02.732Z,1.50
2018-08-14T03:57:37.321Z,1.50
2018-08-14T04:00:10.979Z,1.20
2018-08-14T04:02:44.857Z,1.55
2018-08-14T04:05:18.676Z,1.65
2018-08-14T04:07:53.207Z,1.62
2018-08-14T04:10:27.003Z,2.10
2018-08-14T04:13:00.772Z,5.03
2018-08-14T04:15:34.618Z,1.95
2018-08-14T04:18:09.221Z,1.87
2018-08-14T04:20:42.906Z,1.60
2018-08-14T04:23:17.525Z,1.98
2018-08-14T04:25:51.299Z,1.73
2018-08-14T04:28:25.851Z,2.30
2018-08-14T04:31:00.496Z,1.80
2018-08-14T04:33:34.187Z,1.75
2018-08-14T04:36:08.909Z,1.67
2018-08-14T04:38:42.595Z,1.50
2018-08-14T04:41:16.342Z,1.80
2018-08-14T04:43:50.970Z,1.73
2018-08-14T04:46:24.796Z,1.50
2018-08-14T04:48:59.375Z,1.95
2018-08-14T04:51:33.281Z,1.85
2018-08-14T04:54:07.040Z,3.25
2018-08-14T04:56:40.856Z,1.30
2018-08-14T04:59:14.640Z,1.50
2018-08-14T05:01:49.344Z,1.65
2018-08-14T05:04:23.131Z,1.70
2018-08-14T05:06:56.951Z,1.50
2018-08-14T05:09:30.748Z,3.72
2018-08-14T05:12:05.380Z,1.65
2018-08-14T05:14:39.105Z,2.28
2018-08-14T05:17:12.907Z,1.52
2018-08-14T05:19:47.087Z,1.90
2018-08-14T05:22:20.833Z,1.50
2018-08-14T05:24:55.421Z,1.55
2018-08-14T05:27:29.214Z,1.90
2018-08-14T05:30:03.056Z,1.70
2018-08-14T05:32:37.557Z,2.55
2018-08-14T05:35:11.464Z,1.35
2018-08-14T05:37:45.220Z,2.45
2018-08-14T05:40:19.097Z,2.05
2018-08-14T05:42:53.677Z,1.60
2018-08-14T05:45:28.232Z,1.80
2018-08-14T05:48:01.902Z,1.80
2018-08-14T05:50:35.635Z,2.50
2018-08-14T05:53:10.309Z,1.35
2018-08-14T05:55:44.993Z,1.45
2018-08-14T05:58:18.648Z,1.70
2018-08-14T06:00:52.564Z,1.50
2018-08-14T06:03:27.144Z,2.10
2018-08-14T06:06:01.027Z,1.92
2018-08-14T06:08:35.427Z,1.83
2018-08-14T06:11:09.286Z,2.62
2018-08-14T06:13:44.590Z,2.00
2018-08-14T06:16:19.168Z,1.73
2018-08-14T06:18:52.785Z,1.62
2018-08-14T06:21:27.456Z,1.60
2018-08-14T06:24:01.660Z,1.27
2018-08-14T06:26:35.566Z,1.70
2018-08-14T06:29:10.122Z,1.80
2018-08-14T06:31:44.695Z,1.55
2018-08-14T06:34:18.565Z,2.37
2018-08-14T06:36:52.404Z,1.65
2018-08-14T06:39:26.315Z,1.30
2018-08-14T06:42:00.820Z,1.62
2018-08-14T06:44:35.403Z,2.00
2018-08-14T06:47:09.919Z,2.20
2018-08-14T06:49:43.783Z,1.98
2018-08-14T06:52:18.358Z,1.80
2018-08-14T06:54:54.442Z,1.60
2018-08-14T06:57:28.120Z,1.60
2018-08-14T07:00:01.864Z,1.70
2018-08-14T07:02:35.761Z,1.90
2018-08-14T07:05:09.589Z,1.30
2018-08-14T07:07:43.602Z,1.75
2018-08-14T07:10:17.577Z,1.67
2018-08-14T07:12:51.254Z,1.55
2018-08-14T07:15:25.800Z,1.60
2018-08-14T07:17:59.586Z,1.87
2018-08-14T07:20:33.331Z,1.58
2018-08-14T07:23:07.917Z,1.80
2018-08-14T07:25:41.671Z,2.00
2018-08-14T07:28:16.289Z,1.90
2018-08-14T07:30:50.851Z,1.55
2018-08-14T07:33:24.616Z,2.00
2018-08-14T07:35:59.165Z,1.50
2018-08-14T07:38:33.822Z,1.60
2018-08-14T07:41:07.590Z,1.42
2018-08-14T07:43:42.140Z,2.80
2018-08-14T07:46:16.040Z,1.50
2018-08-14T07:48:50.690Z,2.00
2018-08-14T07:51:25.268Z,1.70
2018-08-14T07:53:59.115Z,1.83
2018-08-14T07:56:32.923Z,1.70
2018-08-14T07:59:06.829Z,1.98
2018-08-14T08:01:41.423Z,3.03
2018-08-14T08:04:15.315Z,1.90
2018-08-14T08:06:49.258Z,2.00
2018-08-14T08:09:22.980Z,3.10
2018-08-14T08:11:57.671Z,1.77
2018-08-14T08:14:31.368Z,1.70
2018-08-14T08:17:05.202Z,1.97
2018-08-14T08:19:39.783Z,1.40
2018-08-14T08:22:13.698Z,2.00
2018-08-14T08:24:47.583Z,1.60
2018-08-14T08:27:21.448Z,1.37
2018-08-14T08:29:56.055Z,2.53
2018-08-14T08:32:30.603Z,1.30
2018-08-14T08:35:04.998Z,1.40
2018-08-14T08:37:39.765Z,1.63
2018-08-14T08:40:13.571Z,1.53
2018-08-14T08:42:47.458Z,1.53
2018-08-14T08:45:21.184Z,1.20
2018-08-14T08:47:55.813Z,1.43
2018-08-14T08:50:29.590Z,1.30
2018-08-14T08:53:04.140Z,1.47
2018-08-14T08:55:38.846Z,2.50
2018-08-14T08:58:12.574Z,1.60
2018-08-14T09:00:46.289Z,1.27
2018-08-14T09:03:20.901Z,1.50
2018-08-14T09:05:54.833Z,1.70
2018-08-14T09:08:29.520Z,1.60
2018-08-14T09:11:03.333Z,1.80
2018-08-14T09:13:37.940Z,1.37
2018-08-14T09:16:11.785Z,1.63
2018-08-14T09:18:46.520Z,1.10
2018-08-14T09:21:20.569Z,1.23
2018-08-14T09:23:54.443Z,2.20
2018-08-14T09:26:28.166Z,3.57
2018-08-14T09:29:02.789Z,1.40
2018-08-14T09:31:36.633Z,1.33
2018-08-14T09:34:11.271Z,1.70
2018-08-14T09:36:45.877Z,1.43
2018-08-14T09:39:19.780Z,1.43
2018-08-14T09:41:53.506Z,1.70
2018-08-14T09:44:28.171Z,1.50
2018-08-14T09:47:02.793Z,1.50
2018-08-14T09:49:37.427Z,1.50
2018-08-14T09:52:12.692Z,1.70
2018-08-14T09:54:47.347Z,2.00
2018-08-14T09:57:21.928Z,1.60
2018-08-14T09:59:55.724Z,1.40
2018-08-14T10:02:29.648Z,1.70
2018-08-14T10:05:03.489Z,1.80
2018-08-14T10:07:37.220Z,2.00
2018-08-14T10:10:11.805Z,2.07
2018-08-14T10:12:47.187Z,2.00
2018-08-14T10:15:21.068Z,2.23
2018-08-14T10:17:55.528Z,1.40
2018-08-14T10:20:30.027Z,1.97
2018-08-14T10:23:05.701Z,1.77
2018-08-14T10:25:39.908Z,1.83
2018-08-14T10:28:15.781Z,1.70
2018-08-14T10:30:50.291Z,2.53
2018-08-14T10:33:23.984Z,1.30
2018-08-14T10:35:57.754Z,1.77
2018-08-14T10:38:31.509Z,1.87
2018-08-14T10:41:05.316Z,1.70
2018-08-14T10:43:39.131Z,2.43
2018-08-14T10:46:13.081Z,1.60
2018-08-14T10:48:47.636Z,1.20
2018-08-14T10:51:22.323Z,2.57
2018-08-14T10:53:55.995Z,2.40
2018-08-14T10:56:29.936Z,2.20
2018-08-14T10:59:03.676Z,1.63
2018-08-14T11:01:38.319Z,1.60
2018-08-14T11:04:12.842Z,2.10
2018-08-14T11:06:47.420Z,1.50
2018-08-14T11:09:21.915Z,1.40
2018-08-14T11:11:55.804Z,1.50
2018-08-14T11:14:30.613Z,1.10
2018-08-14T11:17:04.311Z,1.63
2018-08-14T11:19:38.085Z,1.30
2018-08-14T11:22:11.958Z,1.43
2018-08-14T11:24:45.893Z,1.80
2018-08-14T11:27:20.431Z,1.60
2018-08-14T11:29:54.927Z,1.60
2018-08-14T11:32:28.909Z,2.13
2018-08-14T11:35:02.599Z,2.03
2018-08-14T11:37:36.380Z,1.93
2018-08-14T11:40:10.484Z,1.33
2018-08-14T11:42:44.331Z,1.97
2018-08-14T11:45:18.216Z,1.60
2018-08-14T11:47:52.028Z,1.63
2018-08-14T11:50:26.675Z,1.47
2018-08-14T11:53:00.455Z,1.43
2018-08-14T11:55:35.083Z,1.50
2018-08-14T11:58:09.029Z,1.90
2018-08-14T12:00:43.660Z,1.57
2018-08-14T12:03:17.644Z,1.60
2018-08-14T12:05:51.646Z,5.00
2018-08-14T12:08:25.570Z,1.80
2018-08-14T12:10:59.456Z,1.20
2018-08-14T12:13:33.222Z,1.90
2018-08-14T12:16:07.092Z,2.10
2018-08-14T12:18:40.852Z,2.17
2018-08-14T12:21:14.743Z,1.90
2018-08-14T12:23:48.595Z,1.40
2018-08-14T12:26:32.811Z,1.40
2018-08-14T12:29:07.361Z,2.20
2018-08-14T12:31:42.013Z,1.60
2018-08-14T12:34:15.808Z,1.90
2018-08-14T12:36:50.453Z,3.40
2018-08-14T12:39:24.991Z,1.80
2018-08-14T12:41:58.787Z,1.83
2018-08-14T12:44:32.587Z,1.90
2018-08-14T12:47:06.440Z,1.90
2018-08-14T12:49:41.235Z,1.90
2018-08-14T12:52:15.060Z,1.80
2018-08-14T12:54:48.972Z,1.90
2018-08-14T12:57:22.830Z,1.60
2018-08-14T12:59:56.633Z,1.40
2018-08-14T13:02:30.385Z,2.73
2018-08-14T13:05:04.161Z,1.97
2018-08-14T13:07:37.998Z,1.80
2018-08-14T13:10:11.933Z,1.63
2018-08-14T13:12:45.778Z,1.90
2018-08-14T13:15:20.381Z,1.20
2018-08-14T13:17:54.051Z,1.77
2018-08-14T13:20:28.015Z,1.70
2018-08-14T13:23:01.799Z,1.77
2018-08-14T13:25:35.658Z,1.60
2018-08-14T13:28:10.204Z,1.90
2018-08-14T13:30:43.999Z,1.60
2018-08-14T13:33:17.733Z,1.93
2018-08-14T13:35:51.552Z,1.60
2018-08-14T13:38:26.208Z,1.50
2018-08-14T13:41:00.053Z,1.50
2018-08-14T13:43:33.911Z,1.43
2018-08-14T13:46:07.757Z,2.03
2018-08-14T13:48:41.547Z,1.87
2018-08-14T13:51:16.081Z,1.90
2018-08-14T13:53:49.955Z,2.40
2018-08-14T13:56:23.635Z,1.70
2018-08-14T13:58:57.508Z,1.67
2018-08-14T14:01:32.056Z,1.80
2018-08-14T14:04:05.965Z,1.60
2018-08-14T14:06:40.814Z,1.53
2018-08-14T14:09:14.917Z,1.57
2018-08-14T14:11:48.749Z,2.27
2018-08-14T14:14:22.708Z,1.63
2018-08-14T14:16:56.597Z,3.00
2018-08-14T14:19:31.322Z,1.67
2018-08-14T14:22:05.221Z,2.60
2018-08-14T14:24:43.131Z,2.10
2018-08-14T14:27:17.538Z,1.63
2018-08-14T14:29:52.680Z,2.17
2018-08-14T14:32:26.436Z,1.80
2018-08-14T14:35:00.627Z,1.77
2018-08-14T14:37:34.286Z,2.20
2018-08-14T14:40:08.068Z,1.97
2018-08-14T14:42:42.642Z,1.77
2018-08-14T14:45:16.743Z,2.50
2018-08-14T14:47:50.716Z,1.70
2018-08-14T14:50:24.487Z,2.00
2018-08-14T14:52:58.320Z,2.53
2018-08-14T14:55:32.845Z,1.73
2018-08-14T14:58:06.853Z,1.50
2018-08-14T15:00:41.461Z,1.83
2018-08-14T15:03:15.984Z,1.50
2018-08-14T15:05:49.992Z,1.60
2018-08-14T15:08:23.993Z,1.90
2018-08-14T15:10:57.788Z,1.90
2018-08-14T15:13:31.490Z,1.77
2018-08-14T15:16:05.417Z,1.40
2018-08-14T15:18:39.091Z,2.97
2018-08-14T15:21:14.635Z,3.00
2018-08-14T15:23:48.272Z,2.93
2018-08-14T15:26:22.057Z,1.60
2018-08-14T15:28:56.648Z,2.00
2018-08-14T15:31:30.627Z,1.90
2018-08-14T15:34:04.514Z,1.77
2018-08-14T15:36:39.494Z,1.40
2018-08-14T15:39:13.713Z,1.90
2018-08-14T15:41:47.466Z,1.57
2018-08-14T15:44:21.175Z,1.50
2018-08-14T15:46:55.010Z,1.97
2018-08-14T15:49:29.023Z,1.70
2018-08-14T15:52:03.685Z,2.13
2018-08-14T15:54:37.592Z,2.10
2018-08-14T15:57:11.325Z,1.40
2018-08-14T15:59:45.150Z,1.87
2018-08-14T16:02:19.248Z,1.33
2018-08-14T16:04:53.262Z,1.90
2018-08-14T16:07:28.386Z,1.90
2018-08-14T16:10:02.374Z,2.03
2018-08-14T16:12:37.226Z,1.83
2018-08-14T16:15:11.037Z,1.80
2018-08-14T16:17:45.721Z,1.93
2018-08-14T16:20:19.696Z,1.90
2018-08-14T16:22:53.408Z,1.60
2018-08-14T16:25:27.150Z,2.43
2018-08-14T16:28:00.902Z,1.93
2018-08-14T16:30:35.429Z,2.07
2018-08-14T16:33:09.310Z,2.27
2018-08-14T16:35:43.199Z,2.20
2018-08-14T16:38:17.767Z,2.10
2018-08-14T16:40:51.628Z,1.90
2018-08-14T16:43:25.562Z,1.63
2018-08-14T16:45:59.373Z,2.20
2018-08-14T16:48:33.363Z,2.97
2018-08-14T16:51:07.212Z,2.60
2018-08-14T16:53:41.003Z,1.87
2018-08-14T16:56:15.613Z,1.77
2018-08-14T16:58:49.395Z,2.07
2018-08-14T17:01:23.156Z,2.50
2018-08-14T17:03:57.896Z,2.40
2018-08-14T17:06:32.009Z,1.50
2018-08-14T17:09:05.812Z,1.90
2018-08-14T17:11:40.611Z,2.47
2018-08-14T17:14:14.542Z,2.20
2018-08-14T17:16:48.448Z,2.80
2018-08-14T17:19:22.247Z,3.20
2018-08-14T17:21:56.898Z,2.57
2018-08-14T17:24:30.603Z,3.23
2018-08-14T17:27:04.359Z,2.50
2018-08-14T17:29:38.244Z,3.13
2018-08-14T17:32:12.024Z,3.03
2018-08-14T17:34:47.340Z,2.80
2018-08-14T17:37:21.928Z,2.90
2018-08-14T17:39:55.796Z,2.53
2018-08-14T17:42:29.460Z,2.53
2018-08-14T17:45:03.421Z,3.20
2018-08-14T17:47:37.184Z,3.43
2018-08-14T17:50:10.993Z,3.13
2018-08-14T17:52:44.800Z,3.57
2018-08-14T17:55:18.628Z,3.80
2018-08-14T17:57:53.559Z,2.63
2018-08-14T18:00:27.315Z,2.80
2018-08-14T18:03:01.964Z,2.50
2018-08-14T18:05:35.788Z,3.23
2018-08-14T18:08:09.763Z,3.50
2018-08-14T18:10:43.652Z,3.10
2018-08-14T18:13:17.570Z,3.57
2018-08-14T18:15:51.252Z,3.07
2018-08-14T18:18:25.181Z,3.40
2018-08-14T18:20:59.605Z,3.30
2018-08-14T18:23:33.446Z,3.17
2018-08-14T18:26:07.363Z,3.37
2018-08-14T18:28:41.102Z,3.37
2018-08-14T18:31:14.840Z,3.53
2018-08-14T18:33:49.460Z,3.60
2018-08-14T18:36:23.345Z,3.87
2018-08-14T18:38:59.030Z,3.40
2018-08-14T18:41:32.734Z,6.40
2018-08-14T18:44:06.481Z,6.13
2018-08-14T18:46:40.250Z,4.00
2018-08-14T18:49:14.440Z,3.27
2018-08-14T18:51:49.142Z,3.70
2018-08-14T18:54:23.200Z,3.43
2018-08-14T18:56:57.120Z,3.70
2018-08-14T18:59:31.163Z,3.80
2018-08-14T19:02:04.941Z,3.87
2018-08-14T19:04:38.745Z,3.70
2018-08-14T19:07:12.692Z,3.33
2018-08-14T19:09:46.437Z,5.20
2018-08-14T19:12:20.857Z,3.90
2018-08-14T19:14:55.631Z,3.13
2018-08-14T19:17:29.448Z,3.20
2018-08-14T19:20:04.706Z,4.40
2018-08-14T19:22:38.672Z,4.07
2018-08-14T19:25:12.467Z,4.07
2018-08-14T19:27:46.263Z,4.23
2018-08-14T19:30:19.893Z,3.40
2018-08-14T19:32:53.906Z,3.80
2018-08-14T19:35:27.699Z,3.50
2018-08-14T19:38:02.416Z,4.07
2018-08-14T19:40:36.240Z,3.80
2018-08-14T19:43:10.229Z,4.10
2018-08-14T19:45:43.931Z,5.23
2018-08-14T19:48:17.771Z,3.30
2018-08-14T19:50:52.368Z,4.07
2018-08-14T19:53:26.915Z,4.73
2018-08-14T19:56:00.784Z,3.77
2018-08-14T19:58:34.888Z,4.10
2018-08-14T20:01:08.733Z,4.93
2018-08-14T20:03:42.540Z,3.60
2018-08-14T20:06:16.351Z,3.87
2018-08-14T20:08:50.072Z,3.70
2018-08-14T20:11:23.873Z,4.73
2018-08-14T20:13:57.783Z,3.47
2018-08-14T20:16:31.445Z,3.20
2018-08-14T20:19:05.191Z,3.23
2018-08-14T20:21:38.948Z,3.23
2018-08-14T20:24:13.562Z,3.70
2018-08-14T20:26:47.289Z,3.67
2018-08-14T20:29:22.706Z,3.93
2018-08-14T20:31:56.580Z,3.07
2018-08-14T20:34:31.185Z,3.30
2018-08-14T20:37:05.760Z,3.53
2018-08-14T20:39:39.585Z,3.95
2018-08-14T20:42:13.407Z,3.43
2018-08-14T20:44:48.043Z,3.70
2018-08-14T20:47:21.681Z,3.87
2018-08-14T20:49:56.355Z,3.87
2018-08-14T20:52:30.216Z,3.53
2018-08-14T20:55:04.870Z,3.90
2018-08-14T20:57:38.697Z,3.90
2018-08-14T21:00:13.305Z,3.50
2018-08-14T21:02:47.120Z,3.93
2018-08-14T21:05:21.736Z,3.65
2018-08-14T21:07:56.395Z,4.63
2018-08-14T21:10:30.971Z,3.40
2018-08-14T21:13:05.540Z,3.63
2018-08-14T21:15:39.348Z,3.70
2018-08-14T21:18:14.056Z,3.42
2018-08-14T21:20:47.776Z,3.50
2018-08-14T21:23:21.719Z,2.75
2018-08-14T21:25:55.447Z,3.70
2018-08-14T21:28:29.897Z,3.40
2018-08-14T21:31:04.566Z,3.57
2018-08-14T21:33:38.239Z,3.33
2018-08-14T21:36:11.940Z,3.47
2018-08-14T21:38:46.442Z,3.90
2018-08-14T21:41:21.108Z,3.70
2018-08-14T21:43:54.983Z,3.42
2018-08-14T21:46:28.748Z,3.30
2018-08-14T21:49:03.336Z,3.53
2018-08-14T21:51:37.252Z,4.40
2018-08-14T21:54:11.718Z,3.75
2018-08-14T21:56:45.616Z,3.62
2018-08-14T21:59:20.047Z,3.45
2018-08-14T22:01:53.950Z,3.25
2018-08-14T22:04:27.699Z,4.55
2018-08-14T22:07:01.413Z,3.83
2018-08-14T22:09:35.989Z,4.32
2018-08-14T22:12:10.673Z,3.45
2018-08-14T22:14:44.715Z,4.30
2018-08-14T22:17:18.471Z,4.25
2018-08-14T22:19:53.118Z,3.58
2018-08-14T22:22:26.904Z,3.85
2018-08-14T22:25:00.674Z,3.45
2018-08-14T22:27:35.335Z,4.07
2018-08-14T22:30:09.952Z,3.62
2018-08-14T22:32:43.786Z,4.37
2018-08-14T22:35:17.559Z,3.80
2018-08-14T22:37:51.323Z,4.07
2018-08-14T22:40:25.172Z,3.72
2018-08-14T22:42:58.960Z,3.90
2018-08-14T22:45:32.665Z,4.40
2018-08-14T22:48:07.127Z,4.10
2018-08-14T22:50:41.616Z,3.55
2018-08-14T22:53:16.350Z,3.70
2018-08-14T22:55:50.197Z,3.90
2018-08-14T22:58:24.030Z,4.00
2018-08-14T23:00:57.887Z,4.30
2018-08-14T23:03:31.687Z,4.22
2018-08-14T23:06:05.505Z,4.07
2018-08-14T23:08:39.487Z,4.62
2018-08-14T23:11:13.373Z,3.92
2018-08-14T23:13:47.272Z,3.60
2018-08-14T23:16:21.841Z,3.90
2018-08-14T23:18:55.775Z,4.00
2018-08-14T23:21:29.708Z,3.83
2018-08-14T23:24:03.639Z,3.80
2018-08-14T23:26:37.442Z,4.47
2018-08-14T23:29:11.980Z,3.70
2018-08-14T23:31:45.763Z,4.40
2018-08-14T23:34:19.654Z,3.80
2018-08-14T23:36:54.305Z,3.80
2018-08-14T23:39:28.171Z,4.12
2018-08-14T23:42:01.755Z,3.60
2018-08-14T23:44:35.651Z,3.80
2018-08-14T23:47:09.436Z,3.72
2018-08-14T23:49:43.280Z,3.53
2018-08-14T23:52:17.127Z,3.28
2018-08-14T23:54:50.912Z,4.15
2018-08-14T23:57:24.547Z,3.95
2018-08-14T23:59:58.970Z,3.75
